Portada
METAR-TAF:

METAR-TAF

Aeroports :

Launceston, Austràlia

latitud: 41-32S, longitud: 147-12E, altitud: 171 m

Observació

L'informe es va fer fa 15 minuts, a les 09:00 UTC
Vent 8 kt del Nord/Nord-Oest
Temperatura 5°C
Humitat 75%
Pressió 1029 hPa
Visibilitat 10 km o més

METAR: YMLT 240900Z AUTO 34008KT 9999 // NCD 05/01 Q1029 RF00.0/000.0

Hora: 19:15 (09:15 UTC)

Pronòstic

L'informe es va fer fa 4 hores i 6 minuts, a les 05:09 UTC
Pronòstic vàlid del 24 a les 06 UTC al 25 a les 06 UTC
Vent 10 kt del Nord/Nord-Est
Visibilitat 10 km o més
sense núvols per sota de 1500 mi sense presència de cumulonimbus.
A partir de les 24 a les 0900 UTC
Vent 5 kt del Nord/Nord-Oest
Visibilitat 10 km o més
Núvols disperses a una alçada de 4500 ft
A partir de les 24 a les 1200 UTC
Vent 3 kt amb direcció variable
Visibilitat 10 km o més
Escasses núvols a una alçada de 4000 ft

TAF: YMLT 240509Z 2406/2506 02010KT CAVOK FM240900 33005KT 9999 SCT045 FM241200 VRB03KT 9999 FEW040

Observacions i pronòstics meteorològics de més de 4000 aeroports (METAR i TAF).

Les estacions disponibles són els punts grocs i vermells al mapa.

Posi el ratolí al punt desitjat per veure el nom de l'estació.

Feu clic per veure les observacions i els pronòstics meteorològics.

Per canviar el mapa: feu clic els botons verds amb una creu de color negre per apropar; al botó verd amb un guió per allunyar la imatge; o en les fletxes verdes per a mapes adjacents.


METAR-TAF: